sensor_id;sensor_type;location;lat;lon;timestamp;temperature;humidity
23801;DHT22;12081;48.614;10.226;2023-12-29T00:02:20;5.10;99.90
23801;DHT22;12081;48.614;10.226;2023-12-29T00:05:04;5.10;99.90
23801;DHT22;12081;48.614;10.226;2023-12-29T00:07:48;5.10;99.90
23801;DHT22;12081;48.614;10.226;2023-12-29T00:10:32;5.10;99.90
23801;DHT22;12081;48.614;10.226;2023-12-29T00:13:16;5.10;99.90
23801;DHT22;12081;48.614;10.226;2023-12-29T00:16:06;5.10;99.90
23801;DHT22;12081;48.614;10.226;2023-12-29T00:18:50;5.10;99.90
23801;DHT22;12081;48.614;10.226;2023-12-29T00:21:36;5.00;99.90
23801;DHT22;12081;48.614;10.226;2023-12-29T00:24:20;5.10;99.90
23801;DHT22;12081;48.614;10.226;2023-12-29T00:27:04;5.00;99.90
23801;DHT22;12081;48.614;10.226;2023-12-29T00:29:48;5.00;99.90
23801;DHT22;12081;48.614;10.226;2023-12-29T00:32:32;5.00;99.90
23801;DHT22;12081;48.614;10.226;2023-12-29T00:35:16;5.00;99.90
23801;DHT22;12081;48.614;10.226;2023-12-29T00:38:00;5.00;99.90
23801;DHT22;12081;48.614;10.226;2023-12-29T00:40:44;5.00;99.90
23801;DHT22;12081;48.614;10.226;2023-12-29T00:43:28;5.00;99.90
23801;DHT22;12081;48.614;10.226;2023-12-29T00:46:14;5.10;99.90
23801;DHT22;12081;48.614;10.226;2023-12-29T00:48:58;5.10;99.90
23801;DHT22;12081;48.614;10.226;2023-12-29T00:51:43;5.20;99.90
23801;DHT22;12081;48.614;10.226;2023-12-29T00:54:27;5.30;99.90
23801;DHT22;12081;48.614;10.226;2023-12-29T00:57:11;5.30;99.90
23801;DHT22;12081;48.614;10.226;2023-12-29T00:59:56;5.30;99.90
23801;DHT22;12081;48.614;10.226;2023-12-29T01:02:40;5.30;99.90
23801;DHT22;12081;48.614;10.226;2023-12-29T01:05:24;5.30;99.90
23801;DHT22;12081;48.614;10.226;2023-12-29T01:08:08;5.30;99.90
23801;DHT22;12081;48.614;10.226;2023-12-29T01:10:52;5.30;99.90
23801;DHT22;12081;48.614;10.226;2023-12-29T01:13:36;5.40;99.90
23801;DHT22;12081;48.614;10.226;2023-12-29T01:16:20;5.40;99.90
23801;DHT22;12081;48.614;10.226;2023-12-29T01:19:04;5.40;99.90
23801;DHT22;12081;48.614;10.226;2023-12-29T01:21:48;5.40;99.90
23801;DHT22;12081;48.614;10.226;2023-12-29T01:24:32;5.40;99.90
23801;DHT22;12081;48.614;10.226;2023-12-29T01:27:16;5.40;99.90
23801;DHT22;12081;48.614;10.226;2023-12-29T01:30:01;5.40;99.90
23801;DHT22;12081;48.614;10.226;2023-12-29T01:32:45;5.40;99.90
23801;DHT22;12081;48.614;10.226;2023-12-29T01:35:29;5.30;99.90
23801;DHT22;12081;48.614;10.226;2023-12-29T01:38:13;5.30;99.90
23801;DHT22;12081;48.614;10.226;2023-12-29T01:40:57;5.20;99.90
23801;DHT22;12081;48.614;10.226;2023-12-29T01:46:40;5.30;99.90
23801;DHT22;12081;48.614;10.226;2023-12-29T01:49:25;5.40;99.90
23801;DHT22;12081;48.614;10.226;2023-12-29T01:52:09;5.40;99.90
23801;DHT22;12081;48.614;10.226;2023-12-29T01:54:53;5.40;99.90
23801;DHT22;12081;48.614;10.226;2023-12-29T01:57:38;5.40;99.90
23801;DHT22;12081;48.614;10.226;2023-12-29T02:00:23;5.50;99.90
23801;DHT22;12081;48.614;10.226;2023-12-29T02:03:08;5.50;99.90
23801;DHT22;12081;48.614;10.226;2023-12-29T02:05:56;5.50;99.90
23801;DHT22;12081;48.614;10.226;2023-12-29T02:08:41;5.50;99.90
23801;DHT22;12081;48.614;10.226;2023-12-29T02:11:26;5.50;99.90
23801;DHT22;12081;48.614;10.226;2023-12-29T02:14:10;5.40;99.90
23801;DHT22;12081;48.614;10.226;2023-12-29T02:17:22;5.40;99.90
23801;DHT22;12081;48.614;10.226;2023-12-29T02:20:08;5.40;99.90
23801;DHT22;12081;48.614;10.226;2023-12-29T02:22:53;5.30;99.90
23801;DHT22;12081;48.614;10.226;2023-12-29T02:25:38;5.20;99.90
23801;DHT22;12081;48.614;10.226;2023-12-29T02:28:25;5.20;99.90
23801;DHT22;12081;48.614;10.226;2023-12-29T02:31:14;5.10;99.90
23801;DHT22;12081;48.614;10.226;2023-12-29T02:34:03;5.10;99.90
23801;DHT22;12081;48.614;10.226;2023-12-29T02:36:50;5.00;99.90
23801;DHT22;12081;48.614;10.226;2023-12-29T02:39:35;5.00;99.90
23801;DHT22;12081;48.614;10.226;2023-12-29T02:42:20;5.00;99.90
23801;DHT22;12081;48.614;10.226;2023-12-29T02:45:04;5.00;99.90
23801;DHT22;12081;48.614;10.226;2023-12-29T02:47:48;4.90;99.90
23801;DHT22;12081;48.614;10.226;2023-12-29T02:50:33;4.90;99.90
23801;DHT22;12081;48.614;10.226;2023-12-29T02:53:17;4.90;99.90
23801;DHT22;12081;48.614;10.226;2023-12-29T02:56:01;4.90;99.90
23801;DHT22;12081;48.614;10.226;2023-12-29T02:58:45;4.90;99.90
23801;DHT22;12081;48.614;10.226;2023-12-29T03:01:30;4.90;99.90
23801;DHT22;12081;48.614;10.226;2023-12-29T03:04:14;5.00;99.90
23801;DHT22;12081;48.614;10.226;2023-12-29T03:06:58;5.00;99.90
23801;DHT22;12081;48.614;10.226;2023-12-29T03:09:42;5.00;99.90
23801;DHT22;12081;48.614;10.226;2023-12-29T03:12:26;5.00;99.90
23801;DHT22;12081;48.614;10.226;2023-12-29T03:15:10;5.00;99.90
23801;DHT22;12081;48.614;10.226;2023-12-29T03:17:54;5.00;99.90
23801;DHT22;12081;48.614;10.226;2023-12-29T03:20:38;2.80;99.90
23801;DHT22;12081;48.614;10.226;2023-12-29T03:23:22;5.00;99.90
23801;DHT22;12081;48.614;10.226;2023-12-29T03:26:06;5.10;99.90
23801;DHT22;12081;48.614;10.226;2023-12-29T03:28:50;5.10;99.90
23801;DHT22;12081;48.614;10.226;2023-12-29T03:31:35;5.10;99.90
23801;DHT22;12081;48.614;10.226;2023-12-29T03:34:19;7.80;99.90
23801;DHT22;12081;48.614;10.226;2023-12-29T03:37:04;8.20;99.90
23801;DHT22;12081;48.614;10.226;2023-12-29T03:39:48;8.00;99.90
23801;DHT22;12081;48.614;10.226;2023-12-29T03:42:31;8.20;99.90
23801;DHT22;12081;48.614;10.226;2023-12-29T03:45:16;8.10;99.90
23801;DHT22;12081;48.614;10.226;2023-12-29T03:48:00;8.20;99.90
23801;DHT22;12081;48.614;10.226;2023-12-29T03:50:44;4.90;99.90
23801;DHT22;12081;48.614;10.226;2023-12-29T03:53:29;7.10;99.90
23801;DHT22;12081;48.614;10.226;2023-12-29T03:56:17;7.80;99.90
23801;DHT22;12081;48.614;10.226;2023-12-29T03:59:02;4.40;99.90
23801;DHT22;12081;48.614;10.226;2023-12-29T04:01:46;4.30;99.90
23801;DHT22;12081;48.614;10.226;2023-12-29T04:04:30;4.40;99.90
23801;DHT22;12081;48.614;10.226;2023-12-29T04:07:14;7.00;99.90
23801;DHT22;12081;48.614;10.226;2023-12-29T04:09:58;6.70;99.90
23801;DHT22;12081;48.614;10.226;2023-12-29T04:12:42;3.40;99.90
23801;DHT22;12081;48.614;10.226;2023-12-29T04:15:26;6.50;99.90
23801;DHT22;12081;48.614;10.226;2023-12-29T04:18:10;3.60;99.90
23801;DHT22;12081;48.614;10.226;2023-12-29T06:32:34;4.30;99.90
23801;DHT22;12081;48.614;10.226;2023-12-29T06:35:18;4.30;99.90
23801;DHT22;12081;48.614;10.226;2023-12-29T06:38:02;4.30;99.90
23801;DHT22;12081;48.614;10.226;2023-12-29T06:40:47;4.40;99.90
23801;DHT22;12081;48.614;10.226;2023-12-29T06:43:31;4.40;99.90
23801;DHT22;12081;48.614;10.226;2023-12-29T06:46:15;4.40;99.90
23801;DHT22;12081;48.614;10.226;2023-12-29T06:48:59;4.50;99.90
23801;DHT22;12081;48.614;10.226;2023-12-29T06:51:43;5.40;99.90
23801;DHT22;12081;48.614;10.226;2023-12-29T06:54:27;4.60;99.90
23801;DHT22;12081;48.614;10.226;2023-12-29T06:57:11;4.50;99.90
23801;DHT22;12081;48.614;10.226;2023-12-29T06:59:58;4.50;99.90
23801;DHT22;12081;48.614;10.226;2023-12-29T07:02:42;4.50;99.90
23801;DHT22;12081;48.614;10.226;2023-12-29T07:05:26;4.50;99.90
23801;DHT22;12081;48.614;10.226;2023-12-29T07:08:13;4.60;99.90
23801;DHT22;12081;48.614;10.226;2023-12-29T07:10:58;4.60;99.90
23801;DHT22;12081;48.614;10.226;2023-12-29T07:13:42;2.90;99.90
23801;DHT22;12081;48.614;10.226;2023-12-29T07:16:27;4.70;99.90
23801;DHT22;12081;48.614;10.226;2023-12-29T07:19:11;4.70;99.90
23801;DHT22;12081;48.614;10.226;2023-12-29T07:21:55;4.70;99.90
23801;DHT22;12081;48.614;10.226;2023-12-29T07:24:39;4.70;99.90
23801;DHT22;12081;48.614;10.226;2023-12-29T07:27:24;4.70;99.90
23801;DHT22;12081;48.614;10.226;2023-12-29T07:30:09;4.70;99.90
23801;DHT22;12081;48.614;10.226;2023-12-29T07:32:54;4.60;99.90
23801;DHT22;12081;48.614;10.226;2023-12-29T07:35:38;4.60;99.90
23801;DHT22;12081;48.614;10.226;2023-12-29T07:38:23;4.60;99.90
23801;DHT22;12081;48.614;10.226;2023-12-29T07:41:07;4.70;99.90
23801;DHT22;12081;48.614;10.226;2023-12-29T07:43:51;4.70;99.90
23801;DHT22;12081;48.614;10.226;2023-12-29T07:46:38;4.70;99.90
23801;DHT22;12081;48.614;10.226;2023-12-29T07:49:22;4.90;99.90
23801;DHT22;12081;48.614;10.226;2023-12-29T07:52:06;5.30;99.90
23801;DHT22;12081;48.614;10.226;2023-12-29T07:54:50;5.90;99.90
23801;DHT22;12081;48.614;10.226;2023-12-29T07:57:34;6.50;99.90
23801;DHT22;12081;48.614;10.226;2023-12-29T08:00:18;7.30;99.90
23801;DHT22;12081;48.614;10.226;2023-12-29T08:03:03;8.20;99.90
23801;DHT22;12081;48.614;10.226;2023-12-29T08:05:47;9.10;99.90
23801;DHT22;12081;48.614;10.226;2023-12-29T08:08:31;9.80;99.90
23801;DHT22;12081;48.614;10.226;2023-12-29T08:11:16;10.10;99.90
23801;DHT22;12081;48.614;10.226;2023-12-29T08:14:00;10.50;99.90
23801;DHT22;12081;48.614;10.226;2023-12-29T08:16:45;11.10;99.90
23801;DHT22;12081;48.614;10.226;2023-12-29T08:19:29;10.50;99.90
23801;DHT22;12081;48.614;10.226;2023-12-29T08:22:13;10.80;99.90
23801;DHT22;12081;48.614;10.226;2023-12-29T08:24:58;9.40;99.90
23801;DHT22;12081;48.614;10.226;2023-12-29T08:27:42;9.50;99.90
23801;DHT22;12081;48.614;10.226;2023-12-29T08:30:27;9.20;99.90
23801;DHT22;12081;48.614;10.226;2023-12-29T08:33:12;7.80;99.90
23801;DHT22;12081;48.614;10.226;2023-12-29T08:35:57;7.40;99.90
23801;DHT22;12081;48.614;10.226;2023-12-29T08:38:44;7.70;99.90
23801;DHT22;12081;48.614;10.226;2023-12-29T08:41:28;8.40;99.90
23801;DHT22;12081;48.614;10.226;2023-12-29T08:44:12;9.20;99.90
23801;DHT22;12081;48.614;10.226;2023-12-29T08:46:56;9.10;99.90
23801;DHT22;12081;48.614;10.226;2023-12-29T08:49:40;8.60;99.90
23801;DHT22;12081;48.614;10.226;2023-12-29T08:52:24;8.20;99.90
23801;DHT22;12081;48.614;10.226;2023-12-29T08:55:09;8.00;99.90
23801;DHT22;12081;48.614;10.226;2023-12-29T08:57:54;7.80;99.90
23801;DHT22;12081;48.614;10.226;2023-12-29T09:00:38;7.50;99.90
23801;DHT22;12081;48.614;10.226;2023-12-29T09:03:22;7.60;99.90
23801;DHT22;12081;48.614;10.226;2023-12-29T09:06:06;7.90;99.90
23801;DHT22;12081;48.614;10.226;2023-12-29T09:08:52;8.60;99.90
23801;DHT22;12081;48.614;10.226;2023-12-29T09:11:37;9.50;99.90
23801;DHT22;12081;48.614;10.226;2023-12-29T09:14:21;10.50;99.90
23801;DHT22;12081;48.614;10.226;2023-12-29T09:17:05;12.10;99.90
23801;DHT22;12081;48.614;10.226;2023-12-29T09:19:49;12.40;99.90
23801;DHT22;12081;48.614;10.226;2023-12-29T09:22:33;13.00;99.90
23801;DHT22;12081;48.614;10.226;2023-12-29T09:25:18;13.60;99.90
23801;DHT22;12081;48.614;10.226;2023-12-29T09:28:02;10.90;99.90
23801;DHT22;12081;48.614;10.226;2023-12-29T09:30:46;11.40;99.90
23801;DHT22;12081;48.614;10.226;2023-12-29T09:33:30;12.40;99.90
23801;DHT22;12081;48.614;10.226;2023-12-29T09:36:14;13.10;99.90
23801;DHT22;12081;48.614;10.226;2023-12-29T09:38:58;13.80;99.90
23801;DHT22;12081;48.614;10.226;2023-12-29T09:41:45;14.30;99.90
23801;DHT22;12081;48.614;10.226;2023-12-29T09:44:31;14.80;99.90
23801;DHT22;12081;48.614;10.226;2023-12-29T09:47:20;12.90;99.90
23801;DHT22;12081;48.614;10.226;2023-12-29T09:50:11;15.60;99.90
23801;DHT22;12081;48.614;10.226;2023-12-29T09:52:57;15.00;99.90
23801;DHT22;12081;48.614;10.226;2023-12-29T09:55:42;15.50;99.90
23801;DHT22;12081;48.614;10.226;2023-12-29T09:58:26;15.00;99.90
23801;DHT22;12081;48.614;10.226;2023-12-29T10:01:11;16.50;99.90
23801;DHT22;12081;48.614;10.226;2023-12-29T10:03:55;14.00;99.90
23801;DHT22;12081;48.614;10.226;2023-12-29T10:06:41;13.20;99.90
23801;DHT22;12081;48.614;10.226;2023-12-29T10:09:30;13.00;99.90
23801;DHT22;12081;48.614;10.226;2023-12-29T10:12:15;12.50;99.90
23801;DHT22;12081;48.614;10.226;2023-12-29T10:18:22;12.60;99.90
23801;DHT22;12081;48.614;10.226;2023-12-29T10:21:24;13.10;99.90
23801;DHT22;12081;48.614;10.226;2023-12-29T10:24:16;13.60;99.90
23801;DHT22;12081;48.614;10.226;2023-12-29T10:27:02;13.30;99.90
23801;DHT22;12081;48.614;10.226;2023-12-29T10:29:46;13.30;99.90
23801;DHT22;12081;48.614;10.226;2023-12-29T10:32:30;13.70;99.90
23801;DHT22;12081;48.614;10.226;2023-12-29T10:35:15;13.60;99.90
23801;DHT22;12081;48.614;10.226;2023-12-29T10:38:12;13.90;99.90
23801;DHT22;12081;48.614;10.226;2023-12-29T10:41:13;13.80;99.90
23801;DHT22;12081;48.614;10.226;2023-12-29T10:44:06;14.90;99.90
23801;DHT22;12081;48.614;10.226;2023-12-29T10:46:51;14.00;99.90
23801;DHT22;12081;48.614;10.226;2023-12-29T10:49:35;14.20;99.90
23801;DHT22;12081;48.614;10.226;2023-12-29T10:52:19;13.20;99.90
23801;DHT22;12081;48.614;10.226;2023-12-29T10:55:08;13.40;99.90
23801;DHT22;12081;48.614;10.226;2023-12-29T10:58:00;13.30;99.90
23801;DHT22;12081;48.614;10.226;2023-12-29T11:00:44;13.20;99.90
23801;DHT22;12081;48.614;10.226;2023-12-29T11:03:28;13.40;99.90
23801;DHT22;12081;48.614;10.226;2023-12-29T11:06:12;12.60;99.90
23801;DHT22;12081;48.614;10.226;2023-12-29T11:08:56;12.20;99.90
23801;DHT22;12081;48.614;10.226;2023-12-29T11:11:41;14.00;99.90
23801;DHT22;12081;48.614;10.226;2023-12-29T11:14:27;11.30;99.90
23801;DHT22;12081;48.614;10.226;2023-12-29T11:17:14;11.80;99.90
23801;DHT22;12081;48.614;10.226;2023-12-29T11:20:00;10.70;99.90
23801;DHT22;12081;48.614;10.226;2023-12-29T11:22:46;10.40;99.90
23801;DHT22;12081;48.614;10.226;2023-12-29T11:25:30;10.40;99.90
23801;DHT22;12081;48.614;10.226;2023-12-29T11:28:15;10.40;99.90
23801;DHT22;12081;48.614;10.226;2023-12-29T11:31:00;10.70;99.90
23801;DHT22;12081;48.614;10.226;2023-12-29T11:33:52;11.20;99.90
23801;DHT22;12081;48.614;10.226;2023-12-29T11:36:41;11.90;99.90
23801;DHT22;12081;48.614;10.226;2023-12-29T11:39:51;13.60;99.90
23801;DHT22;12081;48.614;10.226;2023-12-29T11:42:40;12.50;99.90
23801;DHT22;12081;48.614;10.226;2023-12-29T11:45:27;12.70;99.90
23801;DHT22;12081;48.614;10.226;2023-12-29T11:48:12;12.80;99.90
23801;DHT22;12081;48.614;10.226;2023-12-29T11:50:56;14.60;99.90
23801;DHT22;12081;48.614;10.226;2023-12-29T11:53:40;13.80;99.90
23801;DHT22;12081;48.614;10.226;2023-12-29T11:56:30;15.70;99.90
23801;DHT22;12081;48.614;10.226;2023-12-29T12:01:59;13.30;99.90
23801;DHT22;12081;48.614;10.226;2023-12-29T12:04:48;13.20;99.90
23801;DHT22;12081;48.614;10.226;2023-12-29T12:13:06;13.00;99.90
23801;DHT22;12081;48.614;10.226;2023-12-29T12:15:50;12.70;99.90
23801;DHT22;12081;48.614;10.226;2023-12-29T12:18:35;12.90;99.90
23801;DHT22;12081;48.614;10.226;2023-12-29T12:21:19;12.00;99.90
23801;DHT22;12081;48.614;10.226;2023-12-29T12:24:05;11.60;99.90
23801;DHT22;12081;48.614;10.226;2023-12-29T12:26:49;11.30;99.90
23801;DHT22;12081;48.614;10.226;2023-12-29T12:29:34;12.10;99.90
23801;DHT22;12081;48.614;10.226;2023-12-29T12:32:18;11.00;99.90
23801;DHT22;12081;48.614;10.226;2023-12-29T12:35:03;11.00;99.90
23801;DHT22;12081;48.614;10.226;2023-12-29T12:37:47;10.80;99.90
23801;DHT22;12081;48.614;10.226;2023-12-29T12:40:31;10.70;99.90
23801;DHT22;12081;48.614;10.226;2023-12-29T12:43:16;11.30;99.90
23801;DHT22;12081;48.614;10.226;2023-12-29T12:46:01;10.40;99.90
23801;DHT22;12081;48.614;10.226;2023-12-29T12:48:46;10.30;99.90
23801;DHT22;12081;48.614;10.226;2023-12-29T12:51:32;10.00;99.90
23801;DHT22;12081;48.614;10.226;2023-12-29T12:54:18;9.90;99.90
23801;DHT22;12081;48.614;10.226;2023-12-29T12:57:04;9.80;99.90
23801;DHT22;12081;48.614;10.226;2023-12-29T12:59:49;10.90;99.90
23801;DHT22;12081;48.614;10.226;2023-12-29T13:02:35;10.50;99.90
23801;DHT22;12081;48.614;10.226;2023-12-29T13:05:19;10.00;99.90
23801;DHT22;12081;48.614;10.226;2023-12-29T13:08:06;10.20;99.90
23801;DHT22;12081;48.614;10.226;2023-12-29T13:10:51;10.20;99.90
23801;DHT22;12081;48.614;10.226;2023-12-29T13:13:39;10.10;99.90
23801;DHT22;12081;48.614;10.226;2023-12-29T13:16:36;10.10;99.90
23801;DHT22;12081;48.614;10.226;2023-12-29T13:19:23;10.10;99.90
23801;DHT22;12081;48.614;10.226;2023-12-29T13:22:12;10.00;99.90
23801;DHT22;12081;48.614;10.226;2023-12-29T13:24:58;9.90;99.90
23801;DHT22;12081;48.614;10.226;2023-12-29T13:27:44;9.90;99.90
23801;DHT22;12081;48.614;10.226;2023-12-29T13:30:28;9.80;99.90
23801;DHT22;12081;48.614;10.226;2023-12-29T13:36:35;10.50;99.90
23801;DHT22;12081;48.614;10.226;2023-12-29T13:42:47;9.50;99.90
23801;DHT22;12081;48.614;10.226;2023-12-29T13:45:32;9.50;99.90
23801;DHT22;12081;48.614;10.226;2023-12-29T13:48:17;10.70;99.90
23801;DHT22;12081;48.614;10.226;2023-12-29T13:51:01;9.40;99.90
23801;DHT22;12081;48.614;10.226;2023-12-29T13:53:45;9.30;99.90
23801;DHT22;12081;48.614;10.226;2023-12-29T13:56:29;9.20;99.90
23801;DHT22;12081;48.614;10.226;2023-12-29T13:59:13;9.20;99.90
23801;DHT22;12081;48.614;10.226;2023-12-29T14:01:59;9.20;99.90
23801;DHT22;12081;48.614;10.226;2023-12-29T14:04:46;9.10;99.90
23801;DHT22;12081;48.614;10.226;2023-12-29T14:07:32;9.10;99.90
23801;DHT22;12081;48.614;10.226;2023-12-29T14:10:16;9.10;99.90
23801;DHT22;12081;48.614;10.226;2023-12-29T14:13:08;9.00;99.90
23801;DHT22;12081;48.614;10.226;2023-12-29T14:15:53;9.00;99.90
23801;DHT22;12081;48.614;10.226;2023-12-29T14:21:33;8.90;99.90
23801;DHT22;12081;48.614;10.226;2023-12-29T14:24:18;8.90;99.90
23801;DHT22;12081;48.614;10.226;2023-12-29T14:27:02;8.90;99.90
23801;DHT22;12081;48.614;10.226;2023-12-29T14:29:47;8.80;99.90
23801;DHT22;12081;48.614;10.226;2023-12-29T14:32:31;8.80;99.90
23801;DHT22;12081;48.614;10.226;2023-12-29T14:35:16;8.70;99.90
23801;DHT22;12081;48.614;10.226;2023-12-29T14:38:00;9.00;99.90
23801;DHT22;12081;48.614;10.226;2023-12-29T14:40:45;8.60;99.90
23801;DHT22;12081;48.614;10.226;2023-12-29T14:43:29;8.60;99.90
23801;DHT22;12081;48.614;10.226;2023-12-29T14:46:13;8.60;99.90
23801;DHT22;12081;48.614;10.226;2023-12-29T14:48:58;8.60;99.90
23801;DHT22;12081;48.614;10.226;2023-12-29T14:51:43;9.00;99.90
23801;DHT22;12081;48.614;10.226;2023-12-29T14:54:27;9.60;99.90
23801;DHT22;12081;48.614;10.226;2023-12-29T14:57:11;8.60;99.90
23801;DHT22;12081;48.614;10.226;2023-12-29T14:59:55;8.60;99.90
23801;DHT22;12081;48.614;10.226;2023-12-29T15:02:39;8.50;99.90
23801;DHT22;12081;48.614;10.226;2023-12-29T15:05:23;8.50;99.90
23801;DHT22;12081;48.614;10.226;2023-12-29T15:08:08;8.50;99.90
23801;DHT22;12081;48.614;10.226;2023-12-29T15:10:52;8.40;99.90
23801;DHT22;12081;48.614;10.226;2023-12-29T15:13:36;9.60;99.90
23801;DHT22;12081;48.614;10.226;2023-12-29T15:16:22;8.30;99.90
23801;DHT22;12081;48.614;10.226;2023-12-29T15:19:06;8.20;99.90
23801;DHT22;12081;48.614;10.226;2023-12-29T15:21:52;8.20;99.90
23801;DHT22;12081;48.614;10.226;2023-12-29T15:24:38;8.20;99.90
23801;DHT22;12081;48.614;10.226;2023-12-29T15:27:22;8.20;99.90
23801;DHT22;12081;48.614;10.226;2023-12-29T15:30:06;8.10;99.90
23801;DHT22;12081;48.614;10.226;2023-12-29T15:32:51;8.10;99.90
23801;DHT22;12081;48.614;10.226;2023-12-29T15:35:36;8.00;99.90
23801;DHT22;12081;48.614;10.226;2023-12-29T15:38:20;8.00;99.90
23801;DHT22;12081;48.614;10.226;2023-12-29T15:41:04;9.20;99.90
23801;DHT22;12081;48.614;10.226;2023-12-29T15:43:48;7.80;99.90
23801;DHT22;12081;48.614;10.226;2023-12-29T15:46:34;7.80;99.90
23801;DHT22;12081;48.614;10.226;2023-12-29T15:49:18;7.70;99.90
23801;DHT22;12081;48.614;10.226;2023-12-29T15:52:02;8.80;99.90
23801;DHT22;12081;48.614;10.226;2023-12-29T15:54:46;7.60;99.90
23801;DHT22;12081;48.614;10.226;2023-12-29T15:57:30;7.60;99.90
23801;DHT22;12081;48.614;10.226;2023-12-29T16:00:14;8.40;99.90
23801;DHT22;12081;48.614;10.226;2023-12-29T16:02:59;7.60;99.90
23801;DHT22;12081;48.614;10.226;2023-12-29T16:05:43;7.50;99.90
23801;DHT22;12081;48.614;10.226;2023-12-29T16:08:27;10.40;99.90
23801;DHT22;12081;48.614;10.226;2023-12-29T16:11:25;7.40;99.90
23801;DHT22;12081;48.614;10.226;2023-12-29T16:14:10;7.50;99.90
23801;DHT22;12081;48.614;10.226;2023-12-29T16:16:55;7.30;99.90
23801;DHT22;12081;48.614;10.226;2023-12-29T16:19:40;7.40;99.90
23801;DHT22;12081;48.614;10.226;2023-12-29T16:22:24;7.20;99.90
23801;DHT22;12081;48.614;10.226;2023-12-29T16:25:08;7.10;99.90
23801;DHT22;12081;48.614;10.226;2023-12-29T16:27:52;7.10;99.90
23801;DHT22;12081;48.614;10.226;2023-12-29T16:30:36;7.00;99.90
23801;DHT22;12081;48.614;10.226;2023-12-29T16:33:20;7.00;99.90
23801;DHT22;12081;48.614;10.226;2023-12-29T16:36:10;7.00;99.90
23801;DHT22;12081;48.614;10.226;2023-12-29T16:38:55;6.90;99.90
23801;DHT22;12081;48.614;10.226;2023-12-29T16:41:43;6.80;99.90
23801;DHT22;12081;48.614;10.226;2023-12-29T16:44:28;6.80;99.90
23801;DHT22;12081;48.614;10.226;2023-12-29T16:47:13;6.70;99.90
23801;DHT22;12081;48.614;10.226;2023-12-29T16:49:57;6.70;99.90
23801;DHT22;12081;48.614;10.226;2023-12-29T16:52:41;6.50;99.90
23801;DHT22;12081;48.614;10.226;2023-12-29T16:55:25;6.50;99.90
23801;DHT22;12081;48.614;10.226;2023-12-29T16:58:09;6.30;99.90
23801;DHT22;12081;48.614;10.226;2023-12-29T17:00:53;6.20;99.90
23801;DHT22;12081;48.614;10.226;2023-12-29T17:03:37;6.10;99.90
23801;DHT22;12081;48.614;10.226;2023-12-29T17:06:21;6.00;99.90
23801;DHT22;12081;48.614;10.226;2023-12-29T17:09:05;6.10;99.90
23801;DHT22;12081;48.614;10.226;2023-12-29T17:11:50;5.80;99.90
23801;DHT22;12081;48.614;10.226;2023-12-29T17:14:37;5.80;99.90
23801;DHT22;12081;48.614;10.226;2023-12-29T17:17:21;5.70;99.90
23801;DHT22;12081;48.614;10.226;2023-12-29T17:20:05;5.60;99.90
23801;DHT22;12081;48.614;10.226;2023-12-29T17:22:50;5.60;99.90
23801;DHT22;12081;48.614;10.226;2023-12-29T17:25:34;5.50;99.90
23801;DHT22;12081;48.614;10.226;2023-12-29T17:28:18;5.50;99.90
23801;DHT22;12081;48.614;10.226;2023-12-29T17:31:04;5.40;99.90
23801;DHT22;12081;48.614;10.226;2023-12-29T17:33:49;5.20;99.90
23801;DHT22;12081;48.614;10.226;2023-12-29T17:36:33;5.20;99.90
23801;DHT22;12081;48.614;10.226;2023-12-29T17:39:17;5.10;99.90
23801;DHT22;12081;48.614;10.226;2023-12-29T17:42:01;5.00;99.90
23801;DHT22;12081;48.614;10.226;2023-12-29T17:44:45;4.90;99.90
23801;DHT22;12081;48.614;10.226;2023-12-29T17:47:29;4.90;99.90
23801;DHT22;12081;48.614;10.226;2023-12-29T17:50:13;4.90;99.90
23801;DHT22;12081;48.614;10.226;2023-12-29T17:52:58;4.90;99.90
23801;DHT22;12081;48.614;10.226;2023-12-29T17:55:42;4.90;99.90
23801;DHT22;12081;48.614;10.226;2023-12-29T17:58:26;4.80;99.90
23801;DHT22;12081;48.614;10.226;2023-12-29T18:01:15;4.70;99.90
23801;DHT22;12081;48.614;10.226;2023-12-29T18:03:59;4.70;99.90
23801;DHT22;12081;48.614;10.226;2023-12-29T18:06:43;4.70;99.90
23801;DHT22;12081;48.614;10.226;2023-12-29T18:09:27;4.70;99.90
23801;DHT22;12081;48.614;10.226;2023-12-29T18:12:11;4.70;99.90
23801;DHT22;12081;48.614;10.226;2023-12-29T18:14:56;4.70;99.90
23801;DHT22;12081;48.614;10.226;2023-12-29T18:17:41;4.70;99.90
23801;DHT22;12081;48.614;10.226;2023-12-29T18:20:25;4.70;99.90
23801;DHT22;12081;48.614;10.226;2023-12-29T18:23:09;4.70;99.90
23801;DHT22;12081;48.614;10.226;2023-12-29T18:25:53;4.70;99.90
23801;DHT22;12081;48.614;10.226;2023-12-29T18:28:39;4.80;99.90
23801;DHT22;12081;48.614;10.226;2023-12-29T18:31:26;4.80;99.90
23801;DHT22;12081;48.614;10.226;2023-12-29T18:34:10;4.70;99.90
23801;DHT22;12081;48.614;10.226;2023-12-29T18:36:54;4.70;99.90
23801;DHT22;12081;48.614;10.226;2023-12-29T18:39:41;4.70;99.90
23801;DHT22;12081;48.614;10.226;2023-12-29T18:42:25;4.80;99.90
23801;DHT22;12081;48.614;10.226;2023-12-29T18:45:09;4.90;99.90
23801;DHT22;12081;48.614;10.226;2023-12-29T18:47:53;4.80;99.90
23801;DHT22;12081;48.614;10.226;2023-12-29T18:50:39;4.70;99.90
23801;DHT22;12081;48.614;10.226;2023-12-29T18:53:23;4.50;99.90
23801;DHT22;12081;48.614;10.226;2023-12-29T18:56:07;4.40;99.90
23801;DHT22;12081;48.614;10.226;2023-12-29T18:58:51;4.40;99.90
23801;DHT22;12081;48.614;10.226;2023-12-29T19:01:35;4.30;99.90
23801;DHT22;12081;48.614;10.226;2023-12-29T19:04:19;4.40;99.90
23801;DHT22;12081;48.614;10.226;2023-12-29T19:07:04;4.50;99.90
23801;DHT22;12081;48.614;10.226;2023-12-29T19:09:49;4.60;99.90
23801;DHT22;12081;48.614;10.226;2023-12-29T19:12:33;4.60;99.90
23801;DHT22;12081;48.614;10.226;2023-12-29T19:15:17;4.50;99.90
23801;DHT22;12081;48.614;10.226;2023-12-29T19:18:01;4.50;99.90
23801;DHT22;12081;48.614;10.226;2023-12-29T19:20:50;4.30;99.90
23801;DHT22;12081;48.614;10.226;2023-12-29T19:23:34;4.20;99.90
23801;DHT22;12081;48.614;10.226;2023-12-29T19:26:22;4.10;99.90
23801;DHT22;12081;48.614;10.226;2023-12-29T19:29:06;4.00;99.90
23801;DHT22;12081;48.614;10.226;2023-12-29T19:31:51;3.90;99.90
23801;DHT22;12081;48.614;10.226;2023-12-29T19:34:41;3.80;99.90
23801;DHT22;12081;48.614;10.226;2023-12-29T19:37:26;3.80;99.90
23801;DHT22;12081;48.614;10.226;2023-12-29T19:40:11;3.90;99.90
23801;DHT22;12081;48.614;10.226;2023-12-29T19:42:55;3.80;99.90
23801;DHT22;12081;48.614;10.226;2023-12-29T19:45:39;3.80;99.90
23801;DHT22;12081;48.614;10.226;2023-12-29T19:48:23;4.10;99.90
23801;DHT22;12081;48.614;10.226;2023-12-29T19:51:07;3.70;99.90
23801;DHT22;12081;48.614;10.226;2023-12-29T19:53:51;3.70;99.90
23801;DHT22;12081;48.614;10.226;2023-12-29T19:56:35;3.60;99.90